This is the latest recevied weather packets stored in our database for station/object KE6RLG. If no packets are shown the sender has not sent any weather packets the latest 10 day(s).
| Time | Temp. | Humidity | Pressure | Rain* | Wind** | Luminosity | Snow |
|---|---|---|---|---|---|---|---|
| 1777800325 | 14.44° C | 84% | 1012.8 hPa | 0 mm | - | 0 W/m² | - |
| 1777798525 | 14.44° C | 84% | 1012.9 hPa | 0 mm | - | 0 W/m² | - |
| 1777798226 | 14.44° C | 84% | 1013 hPa | 0 mm | - | 0 W/m² | - |
| 1777796426 | 14.44° C | 83% | 1013.3 hPa | 0 mm | - | 0 W/m² | - |
| 1777790427 | 15° C | 84% | 1012.6 hPa | 0 mm | - | 0 W/m² | - |
| 1777790168 | 15° C | 85% | 1012.6 hPa | 0 mm | - | 0 W/m² | - |
| 1777788628 | 15° C | 84% | 1012.8 hPa | 0 mm | - | 0 W/m² | - |
| 1777784420 | 15° C | 86% | 1012.7 hPa | 0 mm | - | 0 W/m² | - |
| 1777784120 | 14.44° C | 86% | 1012.7 hPa | 0 mm | - | 0 W/m² | - |
| 1777779019 | 14.44° C | 88% | 1011.2 hPa | 0 mm | - | 0 W/m² | - |
| 1777777819 | 14.44° C | 87% | 1010.9 hPa | 0 mm | - | 0 W/m² | - |
| 1777777219 | 14.44° C | 87% | 1010.8 hPa | 0 mm | - | 0 W/m² | - |
| 1777775119 | 15° C | 85% | 1010.7 hPa | 0 mm | - | 16 W/m² | - |
| 1777774819 | 15° C | 85% | 1010.7 hPa | 0 mm | - | 21 W/m² | - |
| 1777774220 | 15.56° C | 83% | 1010.6 hPa | 0 mm | - | 31 W/m² | - |
| 1777773919 | 15.56° C | 83% | 1010.6 hPa | 0 mm | - | 40 W/m² | - |
| 1777771258 | 16.11° C | 80% | 1010.5 hPa | 0 mm | - | 144 W/m² | - |
| 1777770320 | 16.11° C | 78% | 1010.5 hPa | 0 mm | - | 155 W/m² | - |
| 1777769138 | 16.11° C | 78% | 1010.6 hPa | 0 mm | - | 239 W/m² | - |
| 1777768818 | 16.11° C | 78% | 1010.6 hPa | 0 mm | - | 248 W/m² | - |
| 1777766718 | 16.67° C | 75% | 1010.6 hPa | 0 mm | - | 392 W/m² | - |
| 1777766118 | 16.67° C | 73% | 1010.6 hPa | 0 mm | - | 432 W/m² | - |
| 1777762819 | 17.22° C | 73% | 1011.3 hPa | 0 mm | - | 619 W/m² | - |
| 1777759240 | 17.78° C | 70% | 1012.7 hPa | 0 mm | - | 507 W/m² | - |
| 1777758319 | 17.22° C | 72% | 1013 hPa | 0 mm | - | 471 W/m² | - |
* Rain latest hour (hover to see other rain measurements)
** Current wind speed in m/s (hover to see current wind gust speed)